sensor_id;sensor_type;location;lat;lon;timestamp;temperature;humidity
54429;DHT22;40337;52.978;6.310;2023-07-30T00:01:48;15.80;99.90
54429;DHT22;40337;52.978;6.310;2023-07-30T00:04:14;15.70;99.90
54429;DHT22;40337;52.978;6.310;2023-07-30T00:06:39;15.70;99.90
54429;DHT22;40337;52.978;6.310;2023-07-30T00:09:05;15.70;99.90
54429;DHT22;40337;52.978;6.310;2023-07-30T00:11:30;15.70;99.90
54429;DHT22;40337;52.978;6.310;2023-07-30T00:13:56;15.70;99.90
54429;DHT22;40337;52.978;6.310;2023-07-30T00:16:21;15.70;99.90
54429;DHT22;40337;52.978;6.310;2023-07-30T00:18:47;15.60;99.90
54429;DHT22;40337;52.978;6.310;2023-07-30T00:21:12;15.60;99.90
54429;DHT22;40337;52.978;6.310;2023-07-30T00:23:38;15.60;99.90
54429;DHT22;40337;52.978;6.310;2023-07-30T00:26:03;15.60;99.90
54429;DHT22;40337;52.978;6.310;2023-07-30T00:28:29;15.60;99.90
54429;DHT22;40337;52.978;6.310;2023-07-30T00:30:54;15.60;99.90
54429;DHT22;40337;52.978;6.310;2023-07-30T00:33:20;15.50;99.90
54429;DHT22;40337;52.978;6.310;2023-07-30T00:35:45;15.50;99.90
54429;DHT22;40337;52.978;6.310;2023-07-30T00:38:11;15.50;99.90
54429;DHT22;40337;52.978;6.310;2023-07-30T00:40:40;15.50;99.90
54429;DHT22;40337;52.978;6.310;2023-07-30T00:43:07;15.50;99.90
54429;DHT22;40337;52.978;6.310;2023-07-30T00:45:32;15.50;99.90
54429;DHT22;40337;52.978;6.310;2023-07-30T00:47:58;15.50;99.90
54429;DHT22;40337;52.978;6.310;2023-07-30T00:50:24;15.50;99.90
54429;DHT22;40337;52.978;6.310;2023-07-30T00:52:50;15.50;99.90
54429;DHT22;40337;52.978;6.310;2023-07-30T00:55:15;15.50;99.90
54429;DHT22;40337;52.978;6.310;2023-07-30T00:57:41;15.50;99.90
54429;DHT22;40337;52.978;6.310;2023-07-30T01:00:07;15.50;99.90
54429;DHT22;40337;52.978;6.310;2023-07-30T01:02:35;15.40;99.90
54429;DHT22;40337;52.978;6.310;2023-07-30T01:05:01;15.40;99.90
54429;DHT22;40337;52.978;6.310;2023-07-30T01:07:28;15.40;99.90
54429;DHT22;40337;52.978;6.310;2023-07-30T01:09:54;15.40;99.90
54429;DHT22;40337;52.978;6.310;2023-07-30T01:12:20;15.40;99.90
54429;DHT22;40337;52.978;6.310;2023-07-30T01:14:47;15.40;99.90
54429;DHT22;40337;52.978;6.310;2023-07-30T01:17:13;15.30;99.90
54429;DHT22;40337;52.978;6.310;2023-07-30T01:19:39;15.40;99.90
54429;DHT22;40337;52.978;6.310;2023-07-30T01:22:04;15.30;99.90
54429;DHT22;40337;52.978;6.310;2023-07-30T01:24:30;15.40;99.90
54429;DHT22;40337;52.978;6.310;2023-07-30T01:27:01;15.40;99.90
54429;DHT22;40337;52.978;6.310;2023-07-30T01:29:41;15.40;99.90
54429;DHT22;40337;52.978;6.310;2023-07-30T01:32:09;15.40;99.90
54429;DHT22;40337;52.978;6.310;2023-07-30T01:34:37;15.40;99.90
54429;DHT22;40337;52.978;6.310;2023-07-30T01:37:04;15.40;99.90
54429;DHT22;40337;52.978;6.310;2023-07-30T01:39:32;15.50;99.90
54429;DHT22;40337;52.978;6.310;2023-07-30T01:41:58;15.40;99.90
54429;DHT22;40337;52.978;6.310;2023-07-30T01:44:24;15.40;99.90
54429;DHT22;40337;52.978;6.310;2023-07-30T01:46:49;15.40;99.90
54429;DHT22;40337;52.978;6.310;2023-07-30T01:49:15;15.40;99.90
54429;DHT22;40337;52.978;6.310;2023-07-30T01:51:40;15.50;99.90
54429;DHT22;40337;52.978;6.310;2023-07-30T01:54:06;15.50;99.90
54429;DHT22;40337;52.978;6.310;2023-07-30T01:56:31;15.40;99.90
54429;DHT22;40337;52.978;6.310;2023-07-30T01:58:57;15.40;99.90
54429;DHT22;40337;52.978;6.310;2023-07-30T02:01:22;15.50;99.90
54429;DHT22;40337;52.978;6.310;2023-07-30T02:03:48;15.50;99.90
54429;DHT22;40337;52.978;6.310;2023-07-30T02:06:13;15.50;99.90
54429;DHT22;40337;52.978;6.310;2023-07-30T02:08:39;15.50;99.90
54429;DHT22;40337;52.978;6.310;2023-07-30T02:11:04;15.40;99.90
54429;DHT22;40337;52.978;6.310;2023-07-30T02:13:30;15.40;99.90
54429;DHT22;40337;52.978;6.310;2023-07-30T02:15:55;15.50;99.90
54429;DHT22;40337;52.978;6.310;2023-07-30T02:18:21;15.50;99.90
54429;DHT22;40337;52.978;6.310;2023-07-30T02:20:47;15.50;99.90
54429;DHT22;40337;52.978;6.310;2023-07-30T02:23:14;15.50;99.90
54429;DHT22;40337;52.978;6.310;2023-07-30T02:25:41;15.50;99.90
54429;DHT22;40337;52.978;6.310;2023-07-30T02:28:07;15.50;99.90
54429;DHT22;40337;52.978;6.310;2023-07-30T02:30:33;15.50;99.90
54429;DHT22;40337;52.978;6.310;2023-07-30T02:32:59;15.50;99.90
54429;DHT22;40337;52.978;6.310;2023-07-30T02:35:24;15.50;99.90
54429;DHT22;40337;52.978;6.310;2023-07-30T02:37:50;15.50;99.90
54429;DHT22;40337;52.978;6.310;2023-07-30T02:40:16;15.60;99.90
54429;DHT22;40337;52.978;6.310;2023-07-30T02:42:41;15.60;99.90
54429;DHT22;40337;52.978;6.310;2023-07-30T02:45:07;15.60;99.90
54429;DHT22;40337;52.978;6.310;2023-07-30T02:47:32;15.60;99.90
54429;DHT22;40337;52.978;6.310;2023-07-30T02:49:58;15.60;99.90
54429;DHT22;40337;52.978;6.310;2023-07-30T02:52:23;15.60;99.90
54429;DHT22;40337;52.978;6.310;2023-07-30T02:54:49;15.60;99.90
54429;DHT22;40337;52.978;6.310;2023-07-30T02:57:15;15.60;99.90
54429;DHT22;40337;52.978;6.310;2023-07-30T02:59:40;15.60;99.90
54429;DHT22;40337;52.978;6.310;2023-07-30T03:02:06;15.60;99.90
54429;DHT22;40337;52.978;6.310;2023-07-30T03:04:31;15.50;99.90
54429;DHT22;40337;52.978;6.310;2023-07-30T03:06:57;15.50;99.90
54429;DHT22;40337;52.978;6.310;2023-07-30T03:09:23;15.50;99.90
54429;DHT22;40337;52.978;6.310;2023-07-30T03:11:51;15.50;99.90
54429;DHT22;40337;52.978;6.310;2023-07-30T03:14:17;15.50;99.90
54429;DHT22;40337;52.978;6.310;2023-07-30T03:16:46;15.50;99.90
54429;DHT22;40337;52.978;6.310;2023-07-30T03:19:12;15.40;99.90
54429;DHT22;40337;52.978;6.310;2023-07-30T03:21:37;15.40;99.90
54429;DHT22;40337;52.978;6.310;2023-07-30T03:24:03;15.50;99.90
54429;DHT22;40337;52.978;6.310;2023-07-30T03:26:29;15.40;99.90
54429;DHT22;40337;52.978;6.310;2023-07-30T03:28:54;15.40;99.90
54429;DHT22;40337;52.978;6.310;2023-07-30T03:31:20;15.40;99.90
54429;DHT22;40337;52.978;6.310;2023-07-30T03:33:45;15.40;99.90
54429;DHT22;40337;52.978;6.310;2023-07-30T03:36:12;15.40;99.90
54429;DHT22;40337;52.978;6.310;2023-07-30T03:38:39;15.40;99.90
54429;DHT22;40337;52.978;6.310;2023-07-30T03:41:05;15.30;99.90
54429;DHT22;40337;52.978;6.310;2023-07-30T03:43:32;15.30;99.90
54429;DHT22;40337;52.978;6.310;2023-07-30T03:45:57;15.30;99.90
54429;DHT22;40337;52.978;6.310;2023-07-30T03:48:23;15.30;99.90
54429;DHT22;40337;52.978;6.310;2023-07-30T03:50:48;15.30;99.90
54429;DHT22;40337;52.978;6.310;2023-07-30T03:53:14;15.30;99.90
54429;DHT22;40337;52.978;6.310;2023-07-30T03:55:40;15.30;99.90
54429;DHT22;40337;52.978;6.310;2023-07-30T03:58:06;15.30;99.90
54429;DHT22;40337;52.978;6.310;2023-07-30T04:00:31;15.30;99.90
54429;DHT22;40337;52.978;6.310;2023-07-30T04:02:57;15.30;99.90
54429;DHT22;40337;52.978;6.310;2023-07-30T04:05:22;15.30;99.90
54429;DHT22;40337;52.978;6.310;2023-07-30T04:07:48;15.30;99.90
54429;DHT22;40337;52.978;6.310;2023-07-30T04:10:13;15.30;99.90
54429;DHT22;40337;52.978;6.310;2023-07-30T04:12:39;15.30;99.90
54429;DHT22;40337;52.978;6.310;2023-07-30T04:15:05;15.30;99.90
54429;DHT22;40337;52.978;6.310;2023-07-30T04:17:31;15.30;99.90
54429;DHT22;40337;52.978;6.310;2023-07-30T04:19:56;15.40;99.90
54429;DHT22;40337;52.978;6.310;2023-07-30T04:22:22;15.40;99.90
54429;DHT22;40337;52.978;6.310;2023-07-30T04:24:47;15.40;99.90
54429;DHT22;40337;52.978;6.310;2023-07-30T04:27:14;15.40;99.90
54429;DHT22;40337;52.978;6.310;2023-07-30T04:29:39;15.40;99.90
54429;DHT22;40337;52.978;6.310;2023-07-30T04:32:05;15.50;99.90
54429;DHT22;40337;52.978;6.310;2023-07-30T04:34:31;15.50;99.90
54429;DHT22;40337;52.978;6.310;2023-07-30T04:36:57;15.50;99.90
54429;DHT22;40337;52.978;6.310;2023-07-30T04:39:22;15.50;99.90
54429;DHT22;40337;52.978;6.310;2023-07-30T04:41:48;15.50;99.90
54429;DHT22;40337;52.978;6.310;2023-07-30T04:44:14;15.60;99.90
54429;DHT22;40337;52.978;6.310;2023-07-30T04:46:39;15.60;99.90
54429;DHT22;40337;52.978;6.310;2023-07-30T04:49:05;15.60;99.90
54429;DHT22;40337;52.978;6.310;2023-07-30T04:51:30;15.60;99.90
54429;DHT22;40337;52.978;6.310;2023-07-30T04:53:56;15.60;99.90
54429;DHT22;40337;52.978;6.310;2023-07-30T04:56:21;15.60;99.90
54429;DHT22;40337;52.978;6.310;2023-07-30T04:58:47;15.70;99.90
54429;DHT22;40337;52.978;6.310;2023-07-30T05:01:12;15.70;99.90
54429;DHT22;40337;52.978;6.310;2023-07-30T05:03:38;15.70;99.90
54429;DHT22;40337;52.978;6.310;2023-07-30T05:06:04;15.70;99.90
54429;DHT22;40337;52.978;6.310;2023-07-30T05:08:30;15.70;99.90
54429;DHT22;40337;52.978;6.310;2023-07-30T05:10:55;15.70;99.90
54429;DHT22;40337;52.978;6.310;2023-07-30T05:13:21;15.70;99.90
54429;DHT22;40337;52.978;6.310;2023-07-30T05:15:47;15.70;99.90
54429;DHT22;40337;52.978;6.310;2023-07-30T05:18:12;15.80;99.90
54429;DHT22;40337;52.978;6.310;2023-07-30T05:20:39;15.80;99.90
54429;DHT22;40337;52.978;6.310;2023-07-30T05:23:04;15.90;99.90
54429;DHT22;40337;52.978;6.310;2023-07-30T05:25:32;15.90;99.90
54429;DHT22;40337;52.978;6.310;2023-07-30T05:27:57;16.00;99.90
54429;DHT22;40337;52.978;6.310;2023-07-30T05:30:23;16.00;99.90
54429;DHT22;40337;52.978;6.310;2023-07-30T05:32:49;16.10;99.90
54429;DHT22;40337;52.978;6.310;2023-07-30T05:35:14;16.10;99.90
54429;DHT22;40337;52.978;6.310;2023-07-30T05:37:40;16.20;99.90
54429;DHT22;40337;52.978;6.310;2023-07-30T05:40:06;16.20;99.90
54429;DHT22;40337;52.978;6.310;2023-07-30T05:42:32;16.30;99.90
54429;DHT22;40337;52.978;6.310;2023-07-30T05:44:57;16.30;99.90
54429;DHT22;40337;52.978;6.310;2023-07-30T05:47:23;16.30;99.90
54429;DHT22;40337;52.978;6.310;2023-07-30T05:49:48;16.30;99.90
54429;DHT22;40337;52.978;6.310;2023-07-30T05:52:14;16.40;99.90
54429;DHT22;40337;52.978;6.310;2023-07-30T05:54:39;16.40;99.90
54429;DHT22;40337;52.978;6.310;2023-07-30T05:57:05;16.40;99.90
54429;DHT22;40337;52.978;6.310;2023-07-30T05:59:31;16.50;99.90
54429;DHT22;40337;52.978;6.310;2023-07-30T06:02:01;16.50;99.90
54429;DHT22;40337;52.978;6.310;2023-07-30T06:04:26;16.60;99.90
54429;DHT22;40337;52.978;6.310;2023-07-30T06:06:52;16.70;99.90
54429;DHT22;40337;52.978;6.310;2023-07-30T06:09:17;16.70;99.90
54429;DHT22;40337;52.978;6.310;2023-07-30T06:11:43;16.80;99.90
54429;DHT22;40337;52.978;6.310;2023-07-30T06:14:08;16.80;99.90
54429;DHT22;40337;52.978;6.310;2023-07-30T06:16:34;16.90;99.90
54429;DHT22;40337;52.978;6.310;2023-07-30T06:19:00;16.90;99.90
54429;DHT22;40337;52.978;6.310;2023-07-30T06:21:25;16.90;99.90
54429;DHT22;40337;52.978;6.310;2023-07-30T06:23:51;16.90;99.90
54429;DHT22;40337;52.978;6.310;2023-07-30T06:26:16;17.00;99.90
54429;DHT22;40337;52.978;6.310;2023-07-30T06:28:42;17.00;99.90
54429;DHT22;40337;52.978;6.310;2023-07-30T06:31:07;17.00;99.90
54429;DHT22;40337;52.978;6.310;2023-07-30T06:33:33;17.10;99.90
54429;DHT22;40337;52.978;6.310;2023-07-30T06:35:58;17.20;99.90
54429;DHT22;40337;52.978;6.310;2023-07-30T06:38:24;17.30;99.90
54429;DHT22;40337;52.978;6.310;2023-07-30T06:40:49;17.30;99.90
54429;DHT22;40337;52.978;6.310;2023-07-30T06:43:15;17.40;99.90
54429;DHT22;40337;52.978;6.310;2023-07-30T06:45:40;17.50;99.90
54429;DHT22;40337;52.978;6.310;2023-07-30T06:48:06;17.60;99.90
54429;DHT22;40337;52.978;6.310;2023-07-30T06:50:31;17.60;99.90
54429;DHT22;40337;52.978;6.310;2023-07-30T06:52:57;17.70;99.90
54429;DHT22;40337;52.978;6.310;2023-07-30T06:55:22;17.80;99.90
54429;DHT22;40337;52.978;6.310;2023-07-30T06:57:48;17.80;99.90
54429;DHT22;40337;52.978;6.310;2023-07-30T07:00:14;18.20;99.90
54429;DHT22;40337;52.978;6.310;2023-07-30T07:02:47;18.30;99.90
54429;DHT22;40337;52.978;6.310;2023-07-30T07:05:12;18.20;99.90
54429;DHT22;40337;52.978;6.310;2023-07-30T07:07:38;18.10;99.90
54429;DHT22;40337;52.978;6.310;2023-07-30T07:10:04;17.90;99.90
54429;DHT22;40337;52.978;6.310;2023-07-30T07:12:29;17.80;99.90
54429;DHT22;40337;52.978;6.310;2023-07-30T07:14:55;17.80;99.90
54429;DHT22;40337;52.978;6.310;2023-07-30T07:17:24;17.70;99.90
54429;DHT22;40337;52.978;6.310;2023-07-30T07:19:49;18.00;99.90
54429;DHT22;40337;52.978;6.310;2023-07-30T07:22:15;18.00;99.90
54429;DHT22;40337;52.978;6.310;2023-07-30T07:24:43;18.10;99.90
54429;DHT22;40337;52.978;6.310;2023-07-30T07:27:09;18.20;99.90
54429;DHT22;40337;52.978;6.310;2023-07-30T07:29:35;18.20;99.90
54429;DHT22;40337;52.978;6.310;2023-07-30T07:32:00;18.30;99.90
54429;DHT22;40337;52.978;6.310;2023-07-30T07:34:26;18.30;99.90
54429;DHT22;40337;52.978;6.310;2023-07-30T07:36:51;18.20;99.90
54429;DHT22;40337;52.978;6.310;2023-07-30T07:39:17;18.10;99.90
54429;DHT22;40337;52.978;6.310;2023-07-30T07:41:43;18.00;99.90
54429;DHT22;40337;52.978;6.310;2023-07-30T07:44:09;18.00;99.90
54429;DHT22;40337;52.978;6.310;2023-07-30T07:46:34;18.00;99.90
54429;DHT22;40337;52.978;6.310;2023-07-30T07:49:00;18.30;99.90
54429;DHT22;40337;52.978;6.310;2023-07-30T07:51:25;18.70;99.90
54429;DHT22;40337;52.978;6.310;2023-07-30T07:53:51;18.80;99.90
54429;DHT22;40337;52.978;6.310;2023-07-30T07:56:17;18.70;99.90
54429;DHT22;40337;52.978;6.310;2023-07-30T07:58:43;18.50;99.90
54429;DHT22;40337;52.978;6.310;2023-07-30T08:01:09;18.20;99.90
54429;DHT22;40337;52.978;6.310;2023-07-30T08:03:34;17.90;99.90
54429;DHT22;40337;52.978;6.310;2023-07-30T08:06:00;17.60;99.90
54429;DHT22;40337;52.978;6.310;2023-07-30T08:08:26;17.40;99.90
54429;DHT22;40337;52.978;6.310;2023-07-30T08:10:52;17.20;99.90
54429;DHT22;40337;52.978;6.310;2023-07-30T08:13:18;17.00;99.90
54429;DHT22;40337;52.978;6.310;2023-07-30T08:15:43;16.90;99.90
54429;DHT22;40337;52.978;6.310;2023-07-30T08:18:09;16.80;99.90
54429;DHT22;40337;52.978;6.310;2023-07-30T08:20:35;16.70;99.90
54429;DHT22;40337;52.978;6.310;2023-07-30T08:23:00;16.70;99.90
54429;DHT22;40337;52.978;6.310;2023-07-30T08:25:26;16.70;99.90
54429;DHT22;40337;52.978;6.310;2023-07-30T08:27:52;16.70;99.90
54429;DHT22;40337;52.978;6.310;2023-07-30T08:30:17;16.70;99.90
54429;DHT22;40337;52.978;6.310;2023-07-30T08:32:43;16.70;99.90
54429;DHT22;40337;52.978;6.310;2023-07-30T08:35:09;16.70;99.90
54429;DHT22;40337;52.978;6.310;2023-07-30T08:37:37;16.90;99.90
54429;DHT22;40337;52.978;6.310;2023-07-30T08:40:02;17.00;99.90
54429;DHT22;40337;52.978;6.310;2023-07-30T08:42:29;17.00;99.90
54429;DHT22;40337;52.978;6.310;2023-07-30T08:44:54;17.20;99.90
54429;DHT22;40337;52.978;6.310;2023-07-30T08:47:20;17.30;99.90
54429;DHT22;40337;52.978;6.310;2023-07-30T08:49:45;17.30;99.90
54429;DHT22;40337;52.978;6.310;2023-07-30T08:52:11;17.50;99.90
54429;DHT22;40337;52.978;6.310;2023-07-30T08:54:38;17.50;99.90
54429;DHT22;40337;52.978;6.310;2023-07-30T08:57:05;17.60;99.90
54429;DHT22;40337;52.978;6.310;2023-07-30T08:59:39;17.50;99.90
54429;DHT22;40337;52.978;6.310;2023-07-30T09:02:19;17.40;99.90
54429;DHT22;40337;52.978;6.310;2023-07-30T09:04:47;17.30;99.90
54429;DHT22;40337;52.978;6.310;2023-07-30T09:07:14;17.30;99.90
54429;DHT22;40337;52.978;6.310;2023-07-30T09:09:42;17.10;99.90
54429;DHT22;40337;52.978;6.310;2023-07-30T09:12:14;17.00;99.90
54429;DHT22;40337;52.978;6.310;2023-07-30T09:14:40;16.90;99.90
54429;DHT22;40337;52.978;6.310;2023-07-30T09:17:06;16.80;99.90
54429;DHT22;40337;52.978;6.310;2023-07-30T09:19:35;16.60;99.90
54429;DHT22;40337;52.978;6.310;2023-07-30T09:22:05;16.40;99.90
54429;DHT22;40337;52.978;6.310;2023-07-30T09:24:31;16.20;99.90
54429;DHT22;40337;52.978;6.310;2023-07-30T09:27:01;16.20;99.90
54429;DHT22;40337;52.978;6.310;2023-07-30T09:29:27;16.10;99.90
54429;DHT22;40337;52.978;6.310;2023-07-30T09:31:54;16.10;99.90
54429;DHT22;40337;52.978;6.310;2023-07-30T09:34:21;16.10;99.90
54429;DHT22;40337;52.978;6.310;2023-07-30T09:36:50;16.20;99.90
54429;DHT22;40337;52.978;6.310;2023-07-30T09:39:23;16.20;99.90
54429;DHT22;40337;52.978;6.310;2023-07-30T09:41:50;16.30;99.90
54429;DHT22;40337;52.978;6.310;2023-07-30T09:44:18;16.40;99.90
54429;DHT22;40337;52.978;6.310;2023-07-30T09:46:45;16.50;99.90
54429;DHT22;40337;52.978;6.310;2023-07-30T09:49:11;16.60;99.90
54429;DHT22;40337;52.978;6.310;2023-07-30T09:51:38;16.60;99.90
54429;DHT22;40337;52.978;6.310;2023-07-30T09:54:06;16.70;99.90
54429;DHT22;40337;52.978;6.310;2023-07-30T09:56:32;16.70;99.90
54429;DHT22;40337;52.978;6.310;2023-07-30T09:58:58;16.90;99.90
54429;DHT22;40337;52.978;6.310;2023-07-30T10:01:24;17.00;99.90
54429;DHT22;40337;52.978;6.310;2023-07-30T10:03:51;17.30;99.90
54429;DHT22;40337;52.978;6.310;2023-07-30T10:06:17;17.80;99.90
54429;DHT22;40337;52.978;6.310;2023-07-30T10:08:45;18.10;99.90
54429;DHT22;40337;52.978;6.310;2023-07-30T10:11:11;18.40;99.90
54429;DHT22;40337;52.978;6.310;2023-07-30T10:13:40;18.80;99.90
54429;DHT22;40337;52.978;6.310;2023-07-30T10:16:10;19.30;99.90
54429;DHT22;40337;52.978;6.310;2023-07-30T10:18:40;19.60;99.90
54429;DHT22;40337;52.978;6.310;2023-07-30T10:21:11;19.90;99.90
54429;DHT22;40337;52.978;6.310;2023-07-30T10:23:57;19.90;99.90
54429;DHT22;40337;52.978;6.310;2023-07-30T10:26:27;19.80;99.90
54429;DHT22;40337;52.978;6.310;2023-07-30T10:29:13;19.50;99.90
54429;DHT22;40337;52.978;6.310;2023-07-30T10:31:41;19.40;99.90
54429;DHT22;40337;52.978;6.310;2023-07-30T10:34:08;19.80;99.90
54429;DHT22;40337;52.978;6.310;2023-07-30T10:36:48;20.30;99.90
54429;DHT22;40337;52.978;6.310;2023-07-30T10:39:19;20.60;99.90
54429;DHT22;40337;52.978;6.310;2023-07-30T10:41:48;20.70;99.90
54429;DHT22;40337;52.978;6.310;2023-07-30T10:44:33;20.80;99.90
54429;DHT22;40337;52.978;6.310;2023-07-30T10:47:01;21.10;99.90
54429;DHT22;40337;52.978;6.310;2023-07-30T10:49:27;21.40;99.90
54429;DHT22;40337;52.978;6.310;2023-07-30T10:51:54;21.20;99.90
54429;DHT22;40337;52.978;6.310;2023-07-30T10:54:20;21.30;99.90
54429;DHT22;40337;52.978;6.310;2023-07-30T10:56:46;20.90;99.90
54429;DHT22;40337;52.978;6.310;2023-07-30T10:59:13;20.60;99.90
54429;DHT22;40337;52.978;6.310;2023-07-30T11:01:40;20.30;99.90
54429;DHT22;40337;52.978;6.310;2023-07-30T11:04:14;20.40;99.90
54429;DHT22;40337;52.978;6.310;2023-07-30T11:06:48;20.60;99.90
54429;DHT22;40337;52.978;6.310;2023-07-30T11:09:23;20.80;99.90
54429;DHT22;40337;52.978;6.310;2023-07-30T11:11:49;21.10;99.90
54429;DHT22;40337;52.978;6.310;2023-07-30T11:14:19;21.20;99.90
54429;DHT22;40337;52.978;6.310;2023-07-30T11:19:15;21.00;99.90
54429;DHT22;40337;52.978;6.310;2023-07-30T11:21:51;21.00;99.90
54429;DHT22;40337;52.978;6.310;2023-07-30T11:24:17;21.10;99.90
54429;DHT22;40337;52.978;6.310;2023-07-30T11:26:43;21.20;99.90
54429;DHT22;40337;52.978;6.310;2023-07-30T11:29:19;21.10;99.90
54429;DHT22;40337;52.978;6.310;2023-07-30T11:31:46;20.90;99.90
54429;DHT22;40337;52.978;6.310;2023-07-30T11:34:13;20.80;99.90
54429;DHT22;40337;52.978;6.310;2023-07-30T11:36:40;20.80;99.90
54429;DHT22;40337;52.978;6.310;2023-07-30T11:39:07;20.90;99.90
54429;DHT22;40337;52.978;6.310;2023-07-30T11:41:33;21.00;99.90
54429;DHT22;40337;52.978;6.310;2023-07-30T11:43:58;20.90;99.90
54429;DHT22;40337;52.978;6.310;2023-07-30T11:46:24;20.80;99.90
54429;DHT22;40337;52.978;6.310;2023-07-30T11:48:53;20.60;99.90
54429;DHT22;40337;52.978;6.310;2023-07-30T11:51:27;20.40;99.90
54429;DHT22;40337;52.978;6.310;2023-07-30T11:54:00;20.90;99.90
54429;DHT22;40337;52.978;6.310;2023-07-30T11:56:28;21.10;99.90
54429;DHT22;40337;52.978;6.310;2023-07-30T11:58:58;20.80;99.90
54429;DHT22;40337;52.978;6.310;2023-07-30T12:01:27;20.80;99.90
54429;DHT22;40337;52.978;6.310;2023-07-30T12:03:57;20.50;99.90
54429;DHT22;40337;52.978;6.310;2023-07-30T12:06:24;20.40;99.90
54429;DHT22;40337;52.978;6.310;2023-07-30T12:08:50;20.00;99.90
54429;DHT22;40337;52.978;6.310;2023-07-30T12:11:18;19.80;99.90
54429;DHT22;40337;52.978;6.310;2023-07-30T12:13:47;19.60;99.90
54429;DHT22;40337;52.978;6.310;2023-07-30T12:16:13;19.70;99.90
54429;DHT22;40337;52.978;6.310;2023-07-30T12:18:39;20.00;99.90
54429;DHT22;40337;52.978;6.310;2023-07-30T12:21:06;20.60;99.90
54429;DHT22;40337;52.978;6.310;2023-07-30T12:23:34;21.10;99.90
54429;DHT22;40337;52.978;6.310;2023-07-30T12:25:59;20.90;99.90
54429;DHT22;40337;52.978;6.310;2023-07-30T12:28:25;20.40;99.90
54429;DHT22;40337;52.978;6.310;2023-07-30T12:30:51;19.90;99.90
54429;DHT22;40337;52.978;6.310;2023-07-30T12:33:16;19.20;99.90
54429;DHT22;40337;52.978;6.310;2023-07-30T12:35:42;18.90;99.90
54429;DHT22;40337;52.978;6.310;2023-07-30T12:38:07;18.70;99.90
54429;DHT22;40337;52.978;6.310;2023-07-30T12:40:33;18.60;99.90
54429;DHT22;40337;52.978;6.310;2023-07-30T12:43:01;18.50;99.90
54429;DHT22;40337;52.978;6.310;2023-07-30T12:45:27;18.50;99.90
54429;DHT22;40337;52.978;6.310;2023-07-30T12:47:52;18.80;99.90
54429;DHT22;40337;52.978;6.310;2023-07-30T12:50:18;19.10;99.90
54429;DHT22;40337;52.978;6.310;2023-07-30T12:52:43;19.30;99.90
54429;DHT22;40337;52.978;6.310;2023-07-30T12:55:09;19.40;99.90
54429;DHT22;40337;52.978;6.310;2023-07-30T12:57:35;19.40;99.90
54429;DHT22;40337;52.978;6.310;2023-07-30T13:00:02;19.50;99.90
54429;DHT22;40337;52.978;6.310;2023-07-30T13:02:28;19.90;99.90
54429;DHT22;40337;52.978;6.310;2023-07-30T13:04:54;19.90;99.90
54429;DHT22;40337;52.978;6.310;2023-07-30T13:07:20;19.80;99.90
54429;DHT22;40337;52.978;6.310;2023-07-30T13:09:46;19.70;99.90
54429;DHT22;40337;52.978;6.310;2023-07-30T13:12:13;19.80;99.90
54429;DHT22;40337;52.978;6.310;2023-07-30T13:14:38;19.80;99.90
54429;DHT22;40337;52.978;6.310;2023-07-30T13:17:04;19.60;99.90
54429;DHT22;40337;52.978;6.310;2023-07-30T13:19:29;19.80;99.90
54429;DHT22;40337;52.978;6.310;2023-07-30T13:21:57;20.10;99.90
54429;DHT22;40337;52.978;6.310;2023-07-30T13:24:23;20.20;99.90
54429;DHT22;40337;52.978;6.310;2023-07-30T13:26:48;20.50;99.90
54429;DHT22;40337;52.978;6.310;2023-07-30T13:29:14;20.50;99.90
54429;DHT22;40337;52.978;6.310;2023-07-30T13:31:39;20.50;99.90
54429;DHT22;40337;52.978;6.310;2023-07-30T13:34:05;20.70;99.90
54429;DHT22;40337;52.978;6.310;2023-07-30T13:36:30;20.80;99.90
54429;DHT22;40337;52.978;6.310;2023-07-30T13:38:56;21.00;99.90
54429;DHT22;40337;52.978;6.310;2023-07-30T13:41:21;21.10;99.90
54429;DHT22;40337;52.978;6.310;2023-07-30T13:43:47;21.10;99.90
54429;DHT22;40337;52.978;6.310;2023-07-30T13:46:12;21.10;99.90
54429;DHT22;40337;52.978;6.310;2023-07-30T13:48:38;21.00;99.90
54429;DHT22;40337;52.978;6.310;2023-07-30T13:51:03;20.70;99.90
54429;DHT22;40337;52.978;6.310;2023-07-30T13:53:29;20.80;99.90
54429;DHT22;40337;52.978;6.310;2023-07-30T13:55:54;20.70;99.90
54429;DHT22;40337;52.978;6.310;2023-07-30T13:58:20;20.80;99.90
54429;DHT22;40337;52.978;6.310;2023-07-30T14:00:46;20.60;99.90
54429;DHT22;40337;52.978;6.310;2023-07-30T14:03:11;20.50;99.90
54429;DHT22;40337;52.978;6.310;2023-07-30T14:05:38;20.60;99.90
54429;DHT22;40337;52.978;6.310;2023-07-30T14:08:04;20.80;99.90
54429;DHT22;40337;52.978;6.310;2023-07-30T14:10:29;20.60;99.90
54429;DHT22;40337;52.978;6.310;2023-07-30T14:12:55;20.40;99.90
54429;DHT22;40337;52.978;6.310;2023-07-30T14:15:21;20.30;99.90
54429;DHT22;40337;52.978;6.310;2023-07-30T14:17:46;20.30;99.90
54429;DHT22;40337;52.978;6.310;2023-07-30T14:20:12;20.50;99.90
54429;DHT22;40337;52.978;6.310;2023-07-30T14:22:37;20.70;99.90
54429;DHT22;40337;52.978;6.310;2023-07-30T14:25:03;20.90;99.90
54429;DHT22;40337;52.978;6.310;2023-07-30T14:27:29;20.80;99.90
54429;DHT22;40337;52.978;6.310;2023-07-30T14:29:54;20.60;99.90
54429;DHT22;40337;52.978;6.310;2023-07-30T14:32:20;20.20;99.90
54429;DHT22;40337;52.978;6.310;2023-07-30T14:34:46;20.00;99.90
54429;DHT22;40337;52.978;6.310;2023-07-30T14:37:12;19.80;99.90
54429;DHT22;40337;52.978;6.310;2023-07-30T14:39:37;19.70;99.90
54429;DHT22;40337;52.978;6.310;2023-07-30T14:42:03;19.50;99.90
54429;DHT22;40337;52.978;6.310;2023-07-30T14:44:29;19.40;99.90
54429;DHT22;40337;52.978;6.310;2023-07-30T14:46:54;19.30;99.90
54429;DHT22;40337;52.978;6.310;2023-07-30T14:49:22;19.30;99.90
54429;DHT22;40337;52.978;6.310;2023-07-30T14:51:47;19.30;99.90
54429;DHT22;40337;52.978;6.310;2023-07-30T14:54:13;19.30;99.90
54429;DHT22;40337;52.978;6.310;2023-07-30T14:56:39;19.30;99.90
54429;DHT22;40337;52.978;6.310;2023-07-30T14:59:04;19.20;99.90
54429;DHT22;40337;52.978;6.310;2023-07-30T15:01:30;19.10;99.90
54429;DHT22;40337;52.978;6.310;2023-07-30T15:03:56;19.00;99.90
54429;DHT22;40337;52.978;6.310;2023-07-30T15:06:23;18.70;99.90
54429;DHT22;40337;52.978;6.310;2023-07-30T15:08:49;18.50;99.90
54429;DHT22;40337;52.978;6.310;2023-07-30T15:11:14;18.30;99.90
54429;DHT22;40337;52.978;6.310;2023-07-30T15:13:40;18.50;99.90
54429;DHT22;40337;52.978;6.310;2023-07-30T15:16:06;18.90;99.90
54429;DHT22;40337;52.978;6.310;2023-07-30T15:18:32;19.20;99.90
54429;DHT22;40337;52.978;6.310;2023-07-30T15:20:59;19.20;99.90
54429;DHT22;40337;52.978;6.310;2023-07-30T15:23:25;19.10;99.90
54429;DHT22;40337;52.978;6.310;2023-07-30T15:25:50;18.90;99.90
54429;DHT22;40337;52.978;6.310;2023-07-30T15:28:18;19.10;99.90